createdAt,value
2023-01-06T00:07:41.204Z,4.37
2023-01-06T00:17:48.054Z,2.60
2023-01-06T00:27:56.012Z,2.90
2023-01-06T00:37:58.586Z,4.10
2023-01-06T00:48:00.650Z,3.23
2023-01-06T00:58:05.021Z,2.63
2023-01-06T01:08:12.055Z,3.10
2023-01-06T01:18:16.434Z,2.50
2023-01-06T01:28:21.313Z,3.40
2023-01-06T01:38:26.962Z,4.00
2023-01-06T01:48:35.081Z,3.70
2023-01-06T01:58:41.247Z,3.77
2023-01-06T02:09:26.838Z,3.50
2023-01-06T02:19:59.098Z,4.37
2023-01-06T02:30:01.162Z,4.63
2023-01-06T02:40:19.940Z,3.07
2023-01-06T02:51:03.420Z,3.67
2023-01-06T03:01:17.122Z,2.63
2023-01-06T03:11:19.449Z,2.87
2023-01-06T03:21:27.619Z,3.10
2023-01-06T03:31:43.954Z,2.60
2023-01-06T03:42:09.788Z,3.43
2023-01-06T03:52:31.655Z,3.13
2023-01-06T04:02:40.203Z,3.40
2023-01-06T04:12:45.553Z,3.57
2023-01-06T04:22:56.042Z,3.67
2023-01-06T04:33:03.673Z,3.67
2023-01-06T04:43:14.429Z,3.60
2023-01-06T04:53:16.555Z,3.50
2023-01-06T05:03:18.600Z,3.37
2023-01-06T05:13:21.511Z,2.70
2023-01-06T05:23:28.346Z,2.90
2023-01-06T05:33:34.731Z,3.00
2023-01-06T05:43:37.461Z,3.10
2023-01-06T05:53:42.217Z,2.90
2023-01-06T06:03:47.085Z,3.13
2023-01-06T06:13:56.503Z,4.23
2023-01-06T06:23:59.821Z,4.00
2023-01-06T06:34:03.520Z,3.60
2023-01-06T06:44:08.503Z,3.67
2023-01-06T06:54:10.644Z,4.07
2023-01-06T07:04:12.922Z,3.50
2023-01-06T07:14:15.184Z,3.30
2023-01-06T07:24:17.474Z,3.97
2023-01-06T07:34:24.320Z,3.47
2023-01-06T07:44:28.754Z,3.90
2023-01-06T07:54:32.049Z,3.77
2023-01-06T08:04:37.586Z,4.23
2023-01-06T08:14:44.418Z,4.17
2023-01-06T08:24:46.634Z,4.20
2023-01-06T08:34:51.183Z,3.83
2023-01-06T08:44:53.324Z,4.20
2023-01-06T08:55:04.393Z,3.77
2023-01-06T09:05:09.326Z,3.97
2023-01-06T09:15:12.077Z,4.03
2023-01-06T09:25:14.282Z,5.23
2023-01-06T09:35:16.429Z,4.47
2023-01-06T09:45:21.732Z,4.10
2023-01-06T09:55:42.777Z,3.83
2023-01-06T10:06:04.526Z,4.20
2023-01-06T10:16:26.922Z,4.27
2023-01-06T10:26:32.493Z,4.53
2023-01-06T10:36:43.361Z,4.30
2023-01-06T10:46:51.033Z,4.27
2023-01-06T10:57:00.006Z,3.93
2023-01-06T11:07:08.395Z,4.73
2023-01-06T11:17:21.808Z,5.30
2023-01-06T11:27:27.927Z,5.37
2023-01-06T11:37:35.947Z,6.77
2023-01-06T11:47:38.054Z,7.77
2023-01-06T11:57:54.566Z,6.53
2023-01-06T12:07:57.864Z,5.93
2023-01-06T12:18:08.242Z,5.07
2023-01-06T12:28:35.759Z,5.60
2023-01-06T12:38:56.358Z,5.47
2023-01-06T12:49:12.337Z,5.90
2023-01-06T12:59:28.046Z,6.37
2023-01-06T13:09:46.561Z,6.90
2023-01-06T13:19:58.629Z,6.57
2023-01-06T13:30:06.656Z,5.57
2023-01-06T13:40:12.625Z,6.83
2023-01-06T13:50:20.415Z,6.00
2023-01-06T14:00:28.999Z,6.70
2023-01-06T14:10:43.527Z,5.97
2023-01-06T14:20:48.097Z,6.70
2023-01-06T14:31:28.744Z,7.77
2023-01-06T14:41:33.852Z,6.40
2023-01-06T14:51:36.156Z,6.77
2023-01-06T15:01:42.906Z,7.47
2023-01-06T15:11:50.417Z,8.40
2023-01-06T15:21:55.296Z,6.70
2023-01-06T15:32:01.134Z,10.17
2023-01-06T15:42:05.604Z,9.10
2023-01-06T15:52:23.612Z,11.03
2023-01-06T16:02:29.347Z,10.23
2023-01-06T16:12:31.690Z,10.17
2023-01-06T16:22:48.703Z,6.23
2023-01-06T16:32:55.815Z,10.80
2023-01-06T16:43:02.376Z,10.33
2023-01-06T16:53:18.539Z,11.70
2023-01-06T17:03:21.902Z,6.43
2023-01-06T17:13:36.464Z,14.43
2023-01-06T17:24:02.153Z,14.80
2023-01-06T17:34:21.984Z,18.17
2023-01-06T17:44:35.872Z,18.43
2023-01-06T17:54:59.169Z,21.17
2023-01-06T18:05:34.568Z,21.47
2023-01-06T18:15:41.197Z,17.13
2023-01-06T18:25:50.207Z,17.43
2023-01-06T18:35:57.648Z,17.50
2023-01-06T18:46:05.187Z,20.37
2023-01-06T18:56:16.670Z,22.80
2023-01-06T19:06:35.907Z,20.07
2023-01-06T19:16:44.051Z,22.20
2023-01-06T19:26:50.017Z,22.30
2023-01-06T19:36:55.110Z,21.00
2023-01-06T19:47:24.946Z,18.40
2023-01-06T19:57:29.435Z,20.00
2023-01-06T20:07:33.790Z,14.33
2023-01-06T20:17:36.083Z,20.90
2023-01-06T20:27:43.449Z,21.60
2023-01-06T20:37:51.046Z,17.57
2023-01-06T20:48:00.143Z,18.87
2023-01-06T20:58:07.130Z,15.37
2023-01-06T21:08:09.722Z,16.67
2023-01-06T21:18:13.132Z,19.87
2023-01-06T21:28:21.563Z,15.47
2023-01-06T21:38:25.939Z,19.63
2023-01-06T21:48:28.183Z,17.37
2023-01-06T21:58:33.988Z,20.67
2023-01-06T22:08:40.494Z,12.30
2023-01-06T22:18:51.131Z,18.37
2023-01-06T22:28:55.140Z,19.07
2023-01-06T22:39:02.030Z,16.53
2023-01-06T22:49:10.264Z,16.23
2023-01-06T22:59:15.597Z,16.63
2023-01-06T23:09:34.716Z,18.60
2023-01-06T23:19:41.669Z,16.00
2023-01-06T23:29:48.659Z,15.60
2023-01-06T23:39:53.553Z,17.03
2023-01-06T23:49:55.991Z,16.00
2023-01-06T23:59:58.237Z,17.50
